To NAV CANADA Home Page Login to a new session Search on AWWS site Feedback and Comments Disclaimer Vers la page française équivalente Tips FAQ What's new on the site To the Forecasts and Observations / NOTAM section To "File a Flight Plan" website Publications and other links Update of the User's profile FIC Telephone Numbers My Weather Data Folder Route Weather Data Regional Weather Data Local Weather Data To the Forecasts and Observations / NOTAM section
Request Generated 08/22/2017 at 01:43:21 UTC . Weather information available at that time is displayed.

METAR/TAF

If you find any discrepancies between the coded METAR/TAF and the plain language METAR/TAF please use the coded METAR/TAF. LWIS bulletins are not decoded in plain language.

CALGARY INTL/AB    

METAR CYYC 220100Z 14006KT 20SM SCT098 OVC240 22/05 A3012 RMK AC4CI4 ACSL W SLP208 DENSITY ALT 5100FT=
METAR
LOCATION
CYYC - CALGARY INTL/AB
DATE - TIME
22 AUGUST 2017 - 0100 UTC
WIND
140 TRUE @ 6  KNOTS
VISIBILITY
20 STAT.  MILES
RUNWAY VISUAL RANGE
WEATHER
CLOUDINESS
SCATTERED CLOUDS (3/8 - 4/8) 9800  FT
OVERCAST 24000  FT
TEMP / DEWPOINT
22 C / 5 C
ALTIMETER
30.12 IN HG
RECENT WEATHER
WIND SHEAR

METAR CYYC 220000Z 15008KT 20SM OVC093 22/05 A3013 RMK AC8 SLP213 DENSITY ALT 5000FT=
METAR
LOCATION
CYYC - CALGARY INTL/AB
DATE - TIME
22 AUGUST 2017 - 0000 UTC
WIND
150 TRUE @ 8  KNOTS
VISIBILITY
20 STAT.  MILES
RUNWAY VISUAL RANGE
WEATHER
CLOUDINESS
OVERCAST 9300  FT
TEMP / DEWPOINT
22 C / 5 C
ALTIMETER
30.13 IN HG
RECENT WEATHER
WIND SHEAR

METAR CYYC 212300Z 11003KT 100V190 25SM OVC097 22/04 A3013 RMK AC8 SLP212 DENSITY ALT 5000FT=
METAR
LOCATION
CYYC - CALGARY INTL/AB
DATE - TIME
21 AUGUST 2017 - 2300 UTC
WIND
110 TRUE @ 3  KNOTS
VARIATION
100 <-> 190  DEG
VISIBILITY
25 STAT.  MILES
RUNWAY VISUAL RANGE
WEATHER
CLOUDINESS
OVERCAST 9700  FT
TEMP / DEWPOINT
22 C / 4 C
ALTIMETER
30.13 IN HG
RECENT WEATHER
WIND SHEAR

TAF CYYC 212340Z 2200/2224 VRB03KT P6SM BKN090 FM220400 14008KT P6SM SCT070 BECMG 2212/2214 34006KT FM221900 13008KT P6SM SCT040 RMK NXT FCST BY 220300Z=
TAF
LOCATION

CYYC - CALGARY INTL/AB
VALIDITY [UTC]
21 AUG - 2340 to
23 AUG - 0000
 
TIMES
[UTC]
WIND
[DEGREES TRUE]
VISIBILITY
[STAT. MILES]
WEATHER
CLOUDINESS
[FEET AGL]
 
22 AUG - 0000 to
22 AUG - 0400
VARIABLE @ 3 KNOTS
6+
NIL
9000 BROKEN
 
22 AUG - 0400 to
22 AUG - 1900
140 @ 8 KNOTS
6+
NIL
7000 SCATTERED
BECOMING
22 AUG - 1200 to
22 AUG - 1400
340 @ 6 KNOTS
 
 
 
 
22 AUG - 1900 to
23 AUG - 0000
130 @ 8 KNOTS
6+
NIL
4000 SCATTERED
REMARKS
THE NEXT FORECAST WILL BE ISSUED BY 0300 UTC ON DAY 22


Your time UTC time
Weather data provided by Environment Canada and NAV CANADA